sensor_id;sensor_type;location;lat;lon;timestamp;pressure;altitude;pressure_sealevel;temperature;humidity
16461;BME280;8341;42.048;24.650;2022-08-21T00:00:06;96640.13;;;21.89;100.00
16461;BME280;8341;42.048;24.650;2022-08-21T00:02:34;96643.78;;;21.99;100.00
16461;BME280;8341;42.048;24.650;2022-08-21T00:05:02;96639.28;;;22.11;100.00
16461;BME280;8341;42.048;24.650;2022-08-21T00:07:31;96635.19;;;22.12;100.00
16461;BME280;8341;42.048;24.650;2022-08-21T00:09:58;96633.53;;;22.09;100.00
16461;BME280;8341;42.048;24.650;2022-08-21T00:12:25;96626.47;;;22.15;100.00
16461;BME280;8341;42.048;24.650;2022-08-21T00:14:52;96619.91;;;22.28;100.00
16461;BME280;8341;42.048;24.650;2022-08-21T00:17:19;96628.41;;;22.30;100.00
16461;BME280;8341;42.048;24.650;2022-08-21T00:19:48;96636.38;;;22.33;100.00
16461;BME280;8341;42.048;24.650;2022-08-21T00:22:14;96638.41;;;22.33;100.00
16461;BME280;8341;42.048;24.650;2022-08-21T00:24:43;96636.53;;;22.35;100.00
16461;BME280;8341;42.048;24.650;2022-08-21T00:27:10;96626.38;;;22.30;100.00
16461;BME280;8341;42.048;24.650;2022-08-21T00:29:37;96611.22;;;22.24;100.00
16461;BME280;8341;42.048;24.650;2022-08-21T00:32:04;96610.84;;;22.27;100.00
16461;BME280;8341;42.048;24.650;2022-08-21T00:34:31;96599.72;;;22.27;100.00
16461;BME280;8341;42.048;24.650;2022-08-21T00:36:58;96604.31;;;22.32;100.00
16461;BME280;8341;42.048;24.650;2022-08-21T00:39:25;96596.22;;;22.27;100.00
16461;BME280;8341;42.048;24.650;2022-08-21T00:41:53;96595.25;;;22.32;100.00
16461;BME280;8341;42.048;24.650;2022-08-21T00:44:20;96595.13;;;22.22;100.00
16461;BME280;8341;42.048;24.650;2022-08-21T00:46:46;96597.75;;;22.20;100.00
16461;BME280;8341;42.048;24.650;2022-08-21T00:49:14;96591.88;;;22.09;100.00
16461;BME280;8341;42.048;24.650;2022-08-21T00:51:49;96586.47;;;21.86;100.00
16461;BME280;8341;42.048;24.650;2022-08-21T00:54:16;96582.59;;;21.81;100.00
16461;BME280;8341;42.048;24.650;2022-08-21T00:56:43;96582.50;;;21.64;100.00
16461;BME280;8341;42.048;24.650;2022-08-21T00:59:12;96586.56;;;21.63;100.00
16461;BME280;8341;42.048;24.650;2022-08-21T01:01:39;96581.63;;;21.54;100.00
16461;BME280;8341;42.048;24.650;2022-08-21T01:04:06;96582.50;;;21.64;100.00
16461;BME280;8341;42.048;24.650;2022-08-21T01:06:33;96580.56;;;21.42;100.00
16461;BME280;8341;42.048;24.650;2022-08-21T01:09:00;96574.88;;;21.25;100.00
16461;BME280;8341;42.048;24.650;2022-08-21T01:11:27;96561.59;;;21.16;100.00
16461;BME280;8341;42.048;24.650;2022-08-21T01:13:54;96571.56;;;21.19;100.00
16461;BME280;8341;42.048;24.650;2022-08-21T01:16:22;96591.13;;;21.36;100.00
16461;BME280;8341;42.048;24.650;2022-08-21T01:18:50;96596.63;;;21.51;100.00
16461;BME280;8341;42.048;24.650;2022-08-21T01:21:21;96580.16;;;21.53;100.00
16461;BME280;8341;42.048;24.650;2022-08-21T01:23:50;96585.44;;;21.66;100.00
16461;BME280;8341;42.048;24.650;2022-08-21T01:26:22;96590.59;;;21.70;100.00
16461;BME280;8341;42.048;24.650;2022-08-21T01:28:52;96588.72;;;21.72;100.00
16461;BME280;8341;42.048;24.650;2022-08-21T01:31:23;96593.75;;;21.74;100.00
16461;BME280;8341;42.048;24.650;2022-08-21T01:33:50;96586.91;;;21.67;100.00
16461;BME280;8341;42.048;24.650;2022-08-21T01:36:17;96583.88;;;21.80;100.00
16461;BME280;8341;42.048;24.650;2022-08-21T01:38:45;96592.03;;;21.78;100.00
16461;BME280;8341;42.048;24.650;2022-08-21T01:41:12;96594.94;;;21.96;100.00
16461;BME280;8341;42.048;24.650;2022-08-21T01:43:40;96599.56;;;22.01;100.00
16461;BME280;8341;42.048;24.650;2022-08-21T01:46:07;96601.97;;;21.97;100.00
16461;BME280;8341;42.048;24.650;2022-08-21T01:48:34;96607.94;;;21.86;100.00
16461;BME280;8341;42.048;24.650;2022-08-21T01:51:01;96621.63;;;21.83;100.00
16461;BME280;8341;42.048;24.650;2022-08-21T01:53:28;96624.91;;;21.97;100.00
16461;BME280;8341;42.048;24.650;2022-08-21T01:55:56;96617.47;;;22.07;100.00
16461;BME280;8341;42.048;24.650;2022-08-21T01:58:23;96629.31;;;22.08;100.00
16461;BME280;8341;42.048;24.650;2022-08-21T02:00:50;96628.19;;;22.11;100.00
16461;BME280;8341;42.048;24.650;2022-08-21T02:03:16;96618.38;;;22.10;100.00
16461;BME280;8341;42.048;24.650;2022-08-21T02:05:43;96614.09;;;22.09;100.00
16461;BME280;8341;42.048;24.650;2022-08-21T02:08:10;96624.88;;;22.05;100.00
16461;BME280;8341;42.048;24.650;2022-08-21T02:10:38;96619.56;;;21.92;100.00
16461;BME280;8341;42.048;24.650;2022-08-21T02:13:07;96623.66;;;21.91;100.00
16461;BME280;8341;42.048;24.650;2022-08-21T02:15:34;96611.63;;;21.80;100.00
16461;BME280;8341;42.048;24.650;2022-08-21T02:18:04;96606.50;;;21.77;100.00
16461;BME280;8341;42.048;24.650;2022-08-21T02:20:33;96600.72;;;21.82;100.00
16461;BME280;8341;42.048;24.650;2022-08-21T02:23:01;96605.16;;;21.86;100.00
16461;BME280;8341;42.048;24.650;2022-08-21T02:25:29;96615.72;;;21.79;100.00
16461;BME280;8341;42.048;24.650;2022-08-21T02:27:57;96629.44;;;21.70;100.00
16461;BME280;8341;42.048;24.650;2022-08-21T02:30:28;96635.75;;;21.70;100.00
16461;BME280;8341;42.048;24.650;2022-08-21T02:32:55;96639.88;;;21.54;100.00
16461;BME280;8341;42.048;24.650;2022-08-21T02:35:22;96642.81;;;21.64;100.00
16461;BME280;8341;42.048;24.650;2022-08-21T02:37:52;96639.38;;;21.41;100.00
16461;BME280;8341;42.048;24.650;2022-08-21T02:40:22;96632.78;;;21.21;100.00
16461;BME280;8341;42.048;24.650;2022-08-21T02:42:49;96634.97;;;21.30;100.00
16461;BME280;8341;42.048;24.650;2022-08-21T02:45:16;96631.25;;;21.35;100.00
16461;BME280;8341;42.048;24.650;2022-08-21T02:47:48;96633.25;;;21.42;100.00
16461;BME280;8341;42.048;24.650;2022-08-21T02:50:20;96637.84;;;21.47;100.00
16461;BME280;8341;42.048;24.650;2022-08-21T02:52:47;96638.56;;;21.55;100.00
16461;BME280;8341;42.048;24.650;2022-08-21T02:55:14;96637.25;;;21.64;100.00
16461;BME280;8341;42.048;24.650;2022-08-21T02:57:41;96632.75;;;21.76;100.00
16461;BME280;8341;42.048;24.650;2022-08-21T03:00:10;96634.44;;;21.71;100.00
16461;BME280;8341;42.048;24.650;2022-08-21T03:02:38;96638.41;;;21.53;100.00
16461;BME280;8341;42.048;24.650;2022-08-21T03:05:08;96647.41;;;21.69;100.00
16461;BME280;8341;42.048;24.650;2022-08-21T03:07:36;96657.94;;;21.70;100.00
16461;BME280;8341;42.048;24.650;2022-08-21T03:10:05;96659.78;;;21.75;100.00
16461;BME280;8341;42.048;24.650;2022-08-21T03:12:32;96662.91;;;21.79;100.00
16461;BME280;8341;42.048;24.650;2022-08-21T03:15:00;96665.69;;;21.79;100.00
16461;BME280;8341;42.048;24.650;2022-08-21T03:17:28;96659.41;;;21.79;100.00
16461;BME280;8341;42.048;24.650;2022-08-21T03:19:54;96663.88;;;21.74;100.00
16461;BME280;8341;42.048;24.650;2022-08-21T03:22:23;96656.09;;;21.65;100.00
16461;BME280;8341;42.048;24.650;2022-08-21T03:24:50;96651.56;;;21.45;100.00
16461;BME280;8341;42.048;24.650;2022-08-21T03:27:17;96653.97;;;21.41;100.00
16461;BME280;8341;42.048;24.650;2022-08-21T03:29:44;96662.81;;;21.47;100.00
16461;BME280;8341;42.048;24.650;2022-08-21T03:32:10;96666.13;;;21.61;100.00
16461;BME280;8341;42.048;24.650;2022-08-21T03:34:38;96676.66;;;21.62;100.00
16461;BME280;8341;42.048;24.650;2022-08-21T03:37:06;96667.78;;;21.64;100.00
16461;BME280;8341;42.048;24.650;2022-08-21T03:39:34;96656.47;;;21.69;100.00
16461;BME280;8341;42.048;24.650;2022-08-21T03:42:02;96661.09;;;21.74;100.00
16461;BME280;8341;42.048;24.650;2022-08-21T03:44:30;96653.50;;;21.67;100.00
16461;BME280;8341;42.048;24.650;2022-08-21T03:46:57;96659.97;;;21.70;100.00
16461;BME280;8341;42.048;24.650;2022-08-21T03:49:25;96655.78;;;21.54;100.00
16461;BME280;8341;42.048;24.650;2022-08-21T03:51:52;96657.66;;;21.51;100.00
16461;BME280;8341;42.048;24.650;2022-08-21T03:54:19;96657.47;;;21.57;100.00
16461;BME280;8341;42.048;24.650;2022-08-21T03:56:47;96654.72;;;21.49;100.00
16461;BME280;8341;42.048;24.650;2022-08-21T03:59:14;96657.66;;;21.51;100.00
16461;BME280;8341;42.048;24.650;2022-08-21T04:01:51;96661.72;;;21.50;100.00
16461;BME280;8341;42.048;24.650;2022-08-21T04:04:18;96667.84;;;21.41;100.00
16461;BME280;8341;42.048;24.650;2022-08-21T04:06:45;96671.16;;;21.47;100.00
16461;BME280;8341;42.048;24.650;2022-08-21T04:09:12;96673.53;;;21.58;100.00
16461;BME280;8341;42.048;24.650;2022-08-21T04:11:39;96677.06;;;21.51;100.00
16461;BME280;8341;42.048;24.650;2022-08-21T04:14:07;96679.69;;;21.49;100.00
16461;BME280;8341;42.048;24.650;2022-08-21T04:16:34;96679.63;;;21.64;100.00
16461;BME280;8341;42.048;24.650;2022-08-21T04:19:01;96685.69;;;21.70;100.00
16461;BME280;8341;42.048;24.650;2022-08-21T04:21:28;96685.34;;;21.66;100.00
16461;BME280;8341;42.048;24.650;2022-08-21T04:23:55;96677.78;;;21.67;100.00
16461;BME280;8341;42.048;24.650;2022-08-21T04:26:22;96666.44;;;21.72;100.00
16461;BME280;8341;42.048;24.650;2022-08-21T04:28:49;96672.00;;;21.80;100.00
16461;BME280;8341;42.048;24.650;2022-08-21T04:31:17;96676.63;;;21.77;100.00
16461;BME280;8341;42.048;24.650;2022-08-21T04:33:44;96668.84;;;21.76;100.00
16461;BME280;8341;42.048;24.650;2022-08-21T04:36:11;96669.59;;;21.76;100.00
16461;BME280;8341;42.048;24.650;2022-08-21T04:38:38;96663.66;;;21.80;100.00
16461;BME280;8341;42.048;24.650;2022-08-21T04:41:05;96668.47;;;21.79;100.00
16461;BME280;8341;42.048;24.650;2022-08-21T04:43:32;96658.81;;;21.80;100.00
16461;BME280;8341;42.048;24.650;2022-08-21T04:45:58;96658.66;;;21.78;100.00
16461;BME280;8341;42.048;24.650;2022-08-21T04:48:27;96654.59;;;21.79;100.00
16461;BME280;8341;42.048;24.650;2022-08-21T04:50:56;96645.16;;;21.82;100.00
16461;BME280;8341;42.048;24.650;2022-08-21T04:53:30;96652.72;;;21.90;100.00
16461;BME280;8341;42.048;24.650;2022-08-21T04:56:01;96645.69;;;21.89;100.00
16461;BME280;8341;42.048;24.650;2022-08-21T04:58:30;96636.06;;;21.90;100.00
16461;BME280;8341;42.048;24.650;2022-08-21T05:01:00;96638.66;;;21.88;100.00
16461;BME280;8341;42.048;24.650;2022-08-21T05:03:32;96638.09;;;21.89;100.00
16461;BME280;8341;42.048;24.650;2022-08-21T05:05:59;96637.16;;;21.94;100.00
16461;BME280;8341;42.048;24.650;2022-08-21T05:08:27;96630.50;;;21.90;100.00
16461;BME280;8341;42.048;24.650;2022-08-21T05:10:54;96629.78;;;21.89;100.00
16461;BME280;8341;42.048;24.650;2022-08-21T05:13:21;96633.28;;;21.90;100.00
16461;BME280;8341;42.048;24.650;2022-08-21T05:15:48;96631.75;;;21.96;100.00
16461;BME280;8341;42.048;24.650;2022-08-21T05:18:15;96639.91;;;21.94;100.00
16461;BME280;8341;42.048;24.650;2022-08-21T05:20:43;96643.78;;;21.99;100.00
16461;BME280;8341;42.048;24.650;2022-08-21T05:23:13;96638.22;;;21.99;100.00
16461;BME280;8341;42.048;24.650;2022-08-21T05:25:40;96643.75;;;22.06;100.00
16461;BME280;8341;42.048;24.650;2022-08-21T05:28:08;96636.41;;;21.46;100.00
16461;BME280;8341;42.048;24.650;2022-08-21T05:30:36;96640.50;;;21.38;100.00
16461;BME280;8341;42.048;24.650;2022-08-21T05:33:05;96636.63;;;21.33;100.00
16461;BME280;8341;42.048;24.650;2022-08-21T05:35:33;96644.53;;;21.44;100.00
16461;BME280;8341;42.048;24.650;2022-08-21T05:38:01;96644.69;;;21.54;100.00
16461;BME280;8341;42.048;24.650;2022-08-21T05:40:29;96652.25;;;21.61;100.00
16461;BME280;8341;42.048;24.650;2022-08-21T05:42:56;96658.16;;;21.57;100.00
16461;BME280;8341;42.048;24.650;2022-08-21T05:45:26;96656.50;;;21.62;100.00
16461;BME280;8341;42.048;24.650;2022-08-21T05:47:54;96653.38;;;21.58;100.00
16461;BME280;8341;42.048;24.650;2022-08-21T05:50:20;96659.06;;;21.67;100.00
16461;BME280;8341;42.048;24.650;2022-08-21T05:52:48;96666.06;;;21.76;100.00
16461;BME280;8341;42.048;24.650;2022-08-21T05:55:16;96659.03;;;21.82;100.00
16461;BME280;8341;42.048;24.650;2022-08-21T05:57:43;96656.41;;;21.92;100.00
16461;BME280;8341;42.048;24.650;2022-08-21T06:00:10;96659.72;;;21.91;100.00
16461;BME280;8341;42.048;24.650;2022-08-21T06:02:38;96664.53;;;21.98;100.00
16461;BME280;8341;42.048;24.650;2022-08-21T06:05:05;96666.91;;;22.01;100.00
16461;BME280;8341;42.048;24.650;2022-08-21T06:07:32;96666.88;;;22.09;100.00
16461;BME280;8341;42.048;24.650;2022-08-21T06:09:59;96672.63;;;22.11;100.00
16461;BME280;8341;42.048;24.650;2022-08-21T06:12:27;96671.63;;;22.23;100.00
16461;BME280;8341;42.048;24.650;2022-08-21T06:14:54;96672.88;;;22.30;100.00
16461;BME280;8341;42.048;24.650;2022-08-21T06:17:21;96683.53;;;22.41;100.00
16461;BME280;8341;42.048;24.650;2022-08-21T06:19:51;96677.19;;;22.48;100.00
16461;BME280;8341;42.048;24.650;2022-08-21T06:22:17;96673.25;;;22.59;100.00
16461;BME280;8341;42.048;24.650;2022-08-21T06:24:44;96670.75;;;22.70;100.00
16461;BME280;8341;42.048;24.650;2022-08-21T06:27:11;96671.59;;;22.80;100.00
16461;BME280;8341;42.048;24.650;2022-08-21T06:29:39;96678.03;;;22.90;100.00
16461;BME280;8341;42.048;24.650;2022-08-21T06:32:06;96670.91;;;22.97;100.00
16461;BME280;8341;42.048;24.650;2022-08-21T06:34:36;96662.75;;;22.99;100.00
16461;BME280;8341;42.048;24.650;2022-08-21T06:37:04;96672.91;;;23.04;100.00
16461;BME280;8341;42.048;24.650;2022-08-21T06:39:31;96664.09;;;23.15;100.00
16461;BME280;8341;42.048;24.650;2022-08-21T06:41:57;96662.94;;;23.18;100.00
16461;BME280;8341;42.048;24.650;2022-08-21T06:44:25;96665.16;;;23.20;100.00
16461;BME280;8341;42.048;24.650;2022-08-21T06:46:53;96664.00;;;23.23;100.00
16461;BME280;8341;42.048;24.650;2022-08-21T06:49:20;96652.00;;;23.37;99.90
16461;BME280;8341;42.048;24.650;2022-08-21T06:51:47;96645.38;;;23.50;100.00
16461;BME280;8341;42.048;24.650;2022-08-21T06:54:14;96656.28;;;23.55;100.00
16461;BME280;8341;42.048;24.650;2022-08-21T06:56:40;96651.44;;;23.56;100.00
16461;BME280;8341;42.048;24.650;2022-08-21T06:59:07;96659.06;;;23.73;100.00
16461;BME280;8341;42.048;24.650;2022-08-21T07:01:34;96663.47;;;23.76;100.00
16461;BME280;8341;42.048;24.650;2022-08-21T07:04:03;96663.72;;;23.70;100.00
16461;BME280;8341;42.048;24.650;2022-08-21T07:06:30;96669.53;;;23.82;98.18
16461;BME280;8341;42.048;24.650;2022-08-21T07:08:57;96674.78;;;23.78;97.90
16461;BME280;8341;42.048;24.650;2022-08-21T07:11:24;96661.56;;;23.78;98.77
16461;BME280;8341;42.048;24.650;2022-08-21T07:13:51;96657.78;;;23.83;95.27
16461;BME280;8341;42.048;24.650;2022-08-21T07:16:20;96663.38;;;23.83;93.88
16461;BME280;8341;42.048;24.650;2022-08-21T07:18:47;96654.34;;;23.92;94.56
16461;BME280;8341;42.048;24.650;2022-08-21T07:21:15;96652.06;;;23.98;93.82
16461;BME280;8341;42.048;24.650;2022-08-21T07:23:45;96649.09;;;23.96;93.34
16461;BME280;8341;42.048;24.650;2022-08-21T07:26:14;96650.47;;;24.05;92.72
16461;BME280;8341;42.048;24.650;2022-08-21T07:28:42;96646.13;;;24.11;92.12
16461;BME280;8341;42.048;24.650;2022-08-21T07:31:09;96641.44;;;24.14;91.55
16461;BME280;8341;42.048;24.650;2022-08-21T07:33:39;96636.22;;;24.18;92.81
16461;BME280;8341;42.048;24.650;2022-08-21T07:36:06;96646.91;;;23.95;94.94
16461;BME280;8341;42.048;24.650;2022-08-21T07:38:34;96645.78;;;24.07;94.64
16461;BME280;8341;42.048;24.650;2022-08-21T07:41:03;96645.72;;;24.15;97.31
16461;BME280;8341;42.048;24.650;2022-08-21T07:43:33;96640.88;;;24.15;100.00
16461;BME280;8341;42.048;24.650;2022-08-21T07:46:00;96644.25;;;24.14;100.00
16461;BME280;8341;42.048;24.650;2022-08-21T07:48:27;96659.13;;;24.26;95.60
16461;BME280;8341;42.048;24.650;2022-08-21T07:50:53;96660.78;;;24.29;91.92
16461;BME280;8341;42.048;24.650;2022-08-21T07:53:21;96667.53;;;24.36;90.00
16461;BME280;8341;42.048;24.650;2022-08-21T07:55:49;96663.00;;;24.40;88.65
16461;BME280;8341;42.048;24.650;2022-08-21T07:58:16;96661.59;;;24.49;88.64
16461;BME280;8341;42.048;24.650;2022-08-21T08:00:42;96655.16;;;24.56;86.29
16461;BME280;8341;42.048;24.650;2022-08-21T08:03:09;96659.88;;;24.63;86.63
16461;BME280;8341;42.048;24.650;2022-08-21T08:05:36;96665.06;;;24.76;85.21
16461;BME280;8341;42.048;24.650;2022-08-21T08:08:04;96665.56;;;24.82;84.26
16461;BME280;8341;42.048;24.650;2022-08-21T08:10:31;96658.56;;;24.91;85.24
16461;BME280;8341;42.048;24.650;2022-08-21T08:12:59;96661.22;;;24.98;82.06
16461;BME280;8341;42.048;24.650;2022-08-21T08:15:27;96655.94;;;25.12;81.88
16461;BME280;8341;42.048;24.650;2022-08-21T08:17:54;96663.16;;;25.15;80.25
16461;BME280;8341;42.048;24.650;2022-08-21T08:20:23;96655.78;;;25.10;80.98
16461;BME280;8341;42.048;24.650;2022-08-21T08:22:52;96651.41;;;25.16;81.66
16461;BME280;8341;42.048;24.650;2022-08-21T08:25:20;96648.78;;;25.18;82.76
16461;BME280;8341;42.048;24.650;2022-08-21T08:27:47;96645.09;;;25.16;81.45
16461;BME280;8341;42.048;24.650;2022-08-21T08:30:17;96640.09;;;25.14;83.49
16461;BME280;8341;42.048;24.650;2022-08-21T08:32:45;96638.91;;;25.17;84.41
16461;BME280;8341;42.048;24.650;2022-08-21T08:35:11;96637.28;;;25.14;83.24
16461;BME280;8341;42.048;24.650;2022-08-21T08:37:40;96625.09;;;25.10;86.27
16461;BME280;8341;42.048;24.650;2022-08-21T08:40:10;96624.53;;;25.11;81.99
16461;BME280;8341;42.048;24.650;2022-08-21T08:42:38;96621.88;;;25.04;81.84
16461;BME280;8341;42.048;24.650;2022-08-21T08:45:08;96611.72;;;24.99;88.28
16461;BME280;8341;42.048;24.650;2022-08-21T08:47:40;96609.84;;;25.01;87.91
16461;BME280;8341;42.048;24.650;2022-08-21T08:50:11;96616.75;;;25.19;83.41
16461;BME280;8341;42.048;24.650;2022-08-21T08:52:43;96611.94;;;25.29;83.41
16461;BME280;8341;42.048;24.650;2022-08-21T08:55:14;96610.59;;;25.11;78.06
16461;BME280;8341;42.048;24.650;2022-08-21T08:57:46;96612.47;;;24.99;81.33
16461;BME280;8341;42.048;24.650;2022-08-21T09:00:16;96610.25;;;24.98;81.81
16461;BME280;8341;42.048;24.650;2022-08-21T09:02:46;96610.53;;;24.92;78.54
16461;BME280;8341;42.048;24.650;2022-08-21T09:05:21;96613.59;;;24.86;79.12
16461;BME280;8341;42.048;24.650;2022-08-21T09:08:04;96607.91;;;24.94;80.61
16461;BME280;8341;42.048;24.650;2022-08-21T09:10:46;96606.16;;;25.08;82.29
16461;BME280;8341;42.048;24.650;2022-08-21T09:13:19;96603.97;;;25.16;78.82
16461;BME280;8341;42.048;24.650;2022-08-21T09:15:55;96605.72;;;25.12;76.39
16461;BME280;8341;42.048;24.650;2022-08-21T09:18:34;96593.56;;;25.26;77.51
16461;BME280;8341;42.048;24.650;2022-08-21T09:21:12;96592.38;;;25.29;81.44
16461;BME280;8341;42.048;24.650;2022-08-21T09:23:50;96589.59;;;25.29;88.79
16461;BME280;8341;42.048;24.650;2022-08-21T09:26:20;96586.81;;;25.29;89.87
16461;BME280;8341;42.048;24.650;2022-08-21T09:28:51;96578.00;;;25.14;79.84
16461;BME280;8341;42.048;24.650;2022-08-21T09:31:23;96578.22;;;24.79;84.37
16461;BME280;8341;42.048;24.650;2022-08-21T09:33:57;96571.47;;;24.82;87.54
16461;BME280;8341;42.048;24.650;2022-08-21T09:36:26;96568.47;;;24.71;91.34
16461;BME280;8341;42.048;24.650;2022-08-21T09:38:55;96573.16;;;24.59;89.59
16461;BME280;8341;42.048;24.650;2022-08-21T09:41:27;96563.41;;;24.41;88.35
16461;BME280;8341;42.048;24.650;2022-08-21T09:43:55;96576.28;;;24.26;89.44
16461;BME280;8341;42.048;24.650;2022-08-21T09:46:23;96572.44;;;24.22;95.38
16461;BME280;8341;42.048;24.650;2022-08-21T09:48:53;96578.19;;;24.24;98.83
16461;BME280;8341;42.048;24.650;2022-08-21T09:51:23;96573.38;;;24.07;99.51
16461;BME280;8341;42.048;24.650;2022-08-21T09:53:58;96572.09;;;24.08;98.13
16461;BME280;8341;42.048;24.650;2022-08-21T09:56:30;96572.09;;;23.91;100.00
16461;BME280;8341;42.048;24.650;2022-08-21T09:59:18;96567.44;;;23.67;100.00
16461;BME280;8341;42.048;24.650;2022-08-21T10:01:48;96578.09;;;23.61;100.00
16461;BME280;8341;42.048;24.650;2022-08-21T10:04:22;96574.16;;;23.64;100.00
16461;BME280;8341;42.048;24.650;2022-08-21T11:53:49;96565.34;;;24.48;100.00
16461;BME280;8341;42.048;24.650;2022-08-21T11:56:24;96556.72;;;24.63;100.00
16461;BME280;8341;42.048;24.650;2022-08-21T11:58:56;96564.38;;;24.72;100.00
16461;BME280;8341;42.048;24.650;2022-08-21T12:01:28;96566.47;;;24.81;100.00
16461;BME280;8341;42.048;24.650;2022-08-21T12:04:01;96561.75;;;24.74;100.00
16461;BME280;8341;42.048;24.650;2022-08-21T12:06:31;96551.88;;;24.63;100.00
16461;BME280;8341;42.048;24.650;2022-08-21T12:09:03;96558.47;;;24.49;100.00
16461;BME280;8341;42.048;24.650;2022-08-21T12:11:31;96555.19;;;24.43;100.00
16461;BME280;8341;42.048;24.650;2022-08-21T12:13:59;96546.72;;;24.14;100.00
16461;BME280;8341;42.048;24.650;2022-08-21T12:16:32;96550.22;;;24.41;100.00
16461;BME280;8341;42.048;24.650;2022-08-21T12:19:05;96549.84;;;24.64;100.00
16461;BME280;8341;42.048;24.650;2022-08-21T12:21:33;96551.31;;;24.74;100.00
16461;BME280;8341;42.048;24.650;2022-08-21T12:24:05;96540.81;;;24.92;99.17
16461;BME280;8341;42.048;24.650;2022-08-21T12:26:49;96545.22;;;24.95;89.99
16461;BME280;8341;42.048;24.650;2022-08-21T12:29:21;96553.59;;;25.14;89.31
16461;BME280;8341;42.048;24.650;2022-08-21T12:31:58;96538.03;;;25.59;91.81
16461;BME280;8341;42.048;24.650;2022-08-21T12:34:32;96530.28;;;25.98;90.43
16461;BME280;8341;42.048;24.650;2022-08-21T12:37:03;96532.81;;;26.34;89.05
16461;BME280;8341;42.048;24.650;2022-08-21T12:39:34;96537.97;;;26.59;86.00
16461;BME280;8341;42.048;24.650;2022-08-21T12:42:10;96528.44;;;26.52;86.43
16461;BME280;8341;42.048;24.650;2022-08-21T12:44:45;96527.78;;;26.63;82.68
16461;BME280;8341;42.048;24.650;2022-08-21T12:47:17;96520.13;;;26.64;83.01
16461;BME280;8341;42.048;24.650;2022-08-21T12:49:53;96527.66;;;26.61;80.85
16461;BME280;8341;42.048;24.650;2022-08-21T12:52:24;96523.25;;;26.58;81.76
16461;BME280;8341;42.048;24.650;2022-08-21T12:54:56;96516.97;;;26.48;82.93
16461;BME280;8341;42.048;24.650;2022-08-21T12:57:25;96517.59;;;26.47;85.24
16461;BME280;8341;42.048;24.650;2022-08-21T12:59:53;96516.09;;;26.46;84.76
16461;BME280;8341;42.048;24.650;2022-08-21T13:02:23;96514.09;;;26.37;86.06
16461;BME280;8341;42.048;24.650;2022-08-21T13:04:52;96511.63;;;26.31;84.74
16461;BME280;8341;42.048;24.650;2022-08-21T13:07:26;96519.34;;;26.11;84.51
16461;BME280;8341;42.048;24.650;2022-08-21T13:09:57;96515.81;;;26.11;84.75
16461;BME280;8341;42.048;24.650;2022-08-21T13:12:25;96512.75;;;26.17;86.27
16461;BME280;8341;42.048;24.650;2022-08-21T13:14:56;96516.25;;;26.17;88.12
16461;BME280;8341;42.048;24.650;2022-08-21T13:17:25;96507.31;;;25.99;86.77
16461;BME280;8341;42.048;24.650;2022-08-21T13:19:57;96517.13;;;26.20;81.27
16461;BME280;8341;42.048;24.650;2022-08-21T13:22:25;96517.63;;;26.37;85.14
16461;BME280;8341;42.048;24.650;2022-08-21T13:24:53;96512.19;;;26.39;82.70
16461;BME280;8341;42.048;24.650;2022-08-21T13:27:25;96510.19;;;26.51;84.68
16461;BME280;8341;42.048;24.650;2022-08-21T13:30:05;96509.06;;;26.45;85.37
16461;BME280;8341;42.048;24.650;2022-08-21T13:32:34;96503.72;;;26.49;87.77
16461;BME280;8341;42.048;24.650;2022-08-21T13:35:15;96502.88;;;26.46;89.00
16461;BME280;8341;42.048;24.650;2022-08-21T13:37:43;96511.13;;;26.44;86.70
16461;BME280;8341;42.048;24.650;2022-08-21T13:40:15;96509.75;;;26.24;86.87
16461;BME280;8341;42.048;24.650;2022-08-21T13:42:45;96502.91;;;26.06;85.98
16461;BME280;8341;42.048;24.650;2022-08-21T13:45:16;96505.22;;;26.09;88.73
16461;BME280;8341;42.048;24.650;2022-08-21T13:47:45;96507.44;;;26.01;85.90
16461;BME280;8341;42.048;24.650;2022-08-21T13:50:15;96507.22;;;25.88;87.58
16461;BME280;8341;42.048;24.650;2022-08-21T13:52:56;96506.63;;;25.89;89.52
16461;BME280;8341;42.048;24.650;2022-08-21T13:55:24;96515.69;;;25.99;88.61
16461;BME280;8341;42.048;24.650;2022-08-21T13:58:00;96508.47;;;26.06;91.17
16461;BME280;8341;42.048;24.650;2022-08-21T14:00:29;96502.34;;;25.98;89.85
16461;BME280;8341;42.048;24.650;2022-08-21T14:03:03;96499.50;;;26.07;91.00
16461;BME280;8341;42.048;24.650;2022-08-21T14:05:32;96507.44;;;26.01;88.61
16461;BME280;8341;42.048;24.650;2022-08-21T14:08:03;96506.44;;;25.97;91.29
16461;BME280;8341;42.048;24.650;2022-08-21T14:10:31;96501.34;;;25.93;88.74
16461;BME280;8341;42.048;24.650;2022-08-21T14:13:02;96499.03;;;25.80;87.17
16461;BME280;8341;42.048;24.650;2022-08-21T14:15:32;96500.88;;;25.97;85.40
16461;BME280;8341;42.048;24.650;2022-08-21T14:18:08;96498.47;;;26.13;84.04
16461;BME280;8341;42.048;24.650;2022-08-21T14:20:36;96498.03;;;26.16;79.73
16461;BME280;8341;42.048;24.650;2022-08-21T14:23:03;96488.91;;;26.16;80.56
16461;BME280;8341;42.048;24.650;2022-08-21T14:25:37;96487.25;;;26.22;78.26
16461;BME280;8341;42.048;24.650;2022-08-21T14:28:21;96490.13;;;26.34;78.24
16461;BME280;8341;42.048;24.650;2022-08-21T14:30:51;96485.13;;;26.32;76.23
16461;BME280;8341;42.048;24.650;2022-08-21T14:33:23;96481.56;;;26.41;76.08
16461;BME280;8341;42.048;24.650;2022-08-21T14:35:51;96470.50;;;26.43;75.33
16461;BME280;8341;42.048;24.650;2022-08-21T14:38:20;96486.22;;;26.48;73.82
16461;BME280;8341;42.048;24.650;2022-08-21T14:40:50;96485.41;;;26.36;75.54
16461;BME280;8341;42.048;24.650;2022-08-21T14:43:19;96480.06;;;26.40;79.64
16461;BME280;8341;42.048;24.650;2022-08-21T14:45:46;96477.44;;;26.42;81.13
16461;BME280;8341;42.048;24.650;2022-08-21T14:48:14;96473.94;;;26.32;80.99
16461;BME280;8341;42.048;24.650;2022-08-21T14:50:40;96468.19;;;25.69;81.04